Time;durP1;ratioP1;P1;durP2;ratioP2;P2;SDS_P1;SDS_P2;PMS_P1;PMS_P2;Temp;Humidity;BMP_temperature;BMP_pressure;BME280_temperature;BME280_humidity;BME280_pressure;Samples;Min_cycle;Max_cycle;Signal;HPM_P1;HPM_P2
2023/06/28 00:01:17;;;;;;;3.88;1.38;;;;;;;;;;6206252;23;20016;-84
2023/06/28 00:03:43;;;;;;;3.42;1.67;;;;;;;;;;6207297;23;20036;-84
2023/06/28 00:06:09;;;;;;;6.43;1.92;;;;;;;;;;6207193;23;20470;-84
2023/06/28 00:08:35;;;;;;;3.55;1.80;;;;;;;;;;6206126;23;20028;-86
2023/06/28 00:11:01;;;;;;;4.45;1.90;;;;;;;;;;6208028;23;20024;-85
2023/06/28 00:13:27;;;;;;;5.28;2.10;;;;;;;;;;6207620;23;20020;-84
2023/06/28 00:15:53;;;;;;;2.72;1.77;;;;;;;;;;6206037;23;20016;-84
2023/06/28 00:18:19;;;;;;;4.35;2.05;;;;;;;;;;6206256;23;20017;-84
2023/06/28 00:20:45;;;;;;;4.03;1.63;;;;;;;;;;6207937;23;20051;-84
2023/06/28 00:23:13;;;;;;;5.63;2.55;;;;;;;;;;6205541;23;20013;-84
2023/06/28 00:25:39;;;;;;;5.25;2.20;;;;;;;;;;6206144;23;20024;-85
2023/06/28 00:28:05;;;;;;;5.63;2.55;;;;;;;;;;6206254;23;20012;-84
2023/06/28 00:30:32;;;;;;;2.83;1.80;;;;;;;;;;6205906;23;20464;-84
2023/06/28 00:32:58;;;;;;;4.35;1.60;;;;;;;;;;6206422;23;20099;-84
2023/06/28 00:35:24;;;;;;;4.00;1.90;;;;;;;;;;6203898;23;20031;-84
2023/06/28 00:37:50;;;;;;;3.70;2.10;;;;;;;;;;6205974;23;20021;-84
2023/06/28 00:40:17;;;;;;;3.30;1.65;;;;;;;;;;6206033;23;20016;-84
2023/06/28 00:42:43;;;;;;;7.03;2.80;;;;;;;;;;6207374;23;20059;-84
2023/06/28 00:45:12;;;;;;;3.33;1.92;;;;;;;;;;6206765;23;20083;-83
2023/06/28 00:47:38;;;;;;;3.28;2.00;;;;;;;;;;6206563;23;20122;-83
2023/06/28 00:50:05;;;;;;;4.40;2.92;;;;;;;;;;6207747;23;20135;-83
2023/06/28 00:52:31;;;;;;;3.63;2.03;;;;;;;;;;6208121;23;20040;-83
2023/06/28 00:54:57;;;;;;;2.90;1.88;;;;;;;;;;6206211;23;20012;-83
2023/06/28 00:57:24;;;;;;;3.42;1.90;;;;;;;;;;6206861;23;20021;-83
2023/06/28 00:59:51;;;;;;;3.53;1.70;;;;;;;;;;6180386;23;20016;-83
2023/06/28 01:02:17;;;;;;;4.05;1.83;;;;;;;;;;6206137;23;20055;-83
2023/06/28 01:04:43;;;;;;;4.45;1.90;;;;;;;;;;6207137;23;20059;-83
2023/06/28 01:07:09;;;;;;;5.00;2.20;;;;;;;;;;6206755;23;20017;-83
2023/06/28 01:09:36;;;;;;;4.45;2.20;;;;;;;;;;6209110;23;20066;-83
2023/06/28 01:12:02;;;;;;;4.70;1.95;;;;;;;;;;6209971;23;20016;-83
2023/06/28 01:14:29;;;;;;;4.32;2.15;;;;;;;;;;6206796;23;20092;-83
2023/06/28 01:16:55;;;;;;;3.83;1.77;;;;;;;;;;6209380;23;20017;-82
2023/06/28 01:19:25;;;;;;;4.03;2.30;;;;;;;;;;6207336;23;20061;-83
2023/06/28 01:21:53;;;;;;;3.75;1.98;;;;;;;;;;6209795;23;20256;-83
2023/06/28 01:24:21;;;;;;;3.17;1.88;;;;;;;;;;6209862;23;20083;-83
2023/06/28 01:26:51;;;;;;;4.78;2.50;;;;;;;;;;6208671;23;20460;-83
2023/06/28 01:29:18;;;;;;;2.78;1.92;;;;;;;;;;6207926;23;20101;-83
2023/06/28 01:31:44;;;;;;;3.70;2.00;;;;;;;;;;6207643;23;20346;-83
2023/06/28 01:34:10;;;;;;;5.03;2.85;;;;;;;;;;6208593;23;20016;-83
2023/06/28 01:36:36;;;;;;;2.20;1.92;;;;;;;;;;6209045;23;20013;-83
2023/06/28 01:39:02;;;;;;;4.85;2.70;;;;;;;;;;6208087;23;20019;-83
2023/06/28 01:41:29;;;;;;;4.13;2.28;;;;;;;;;;6208968;23;20016;-83
2023/06/28 01:43:55;;;;;;;3.55;2.13;;;;;;;;;;6182679;23;20039;-83
2023/06/28 01:46:21;;;;;;;4.32;2.35;;;;;;;;;;6205844;23;20091;-83
2023/06/28 01:48:48;;;;;;;4.88;2.40;;;;;;;;;;6210199;23;20024;-83
2023/06/28 01:51:14;;;;;;;8.57;2.30;;;;;;;;;;6210022;23;20017;-83
2023/06/28 01:53:40;;;;;;;4.50;2.10;;;;;;;;;;6207303;23;20066;-83
2023/06/28 01:56:06;;;;;;;6.38;2.35;;;;;;;;;;6206615;23;20016;-82
2023/06/28 01:58:32;;;;;;;7.20;2.85;;;;;;;;;;6208946;23;20457;-83
2023/06/28 02:00:58;;;;;;;3.58;2.50;;;;;;;;;;6206949;23;20024;-83
2023/06/28 02:03:24;;;;;;;3.08;2.03;;;;;;;;;;6206786;23;20040;-83
2023/06/28 02:05:50;;;;;;;2.47;1.95;;;;;;;;;;6207512;23;20019;-83
2023/06/28 02:08:16;;;;;;;2.75;2.13;;;;;;;;;;6208424;23;20039;-83
2023/06/28 02:10:42;;;;;;;3.38;1.98;;;;;;;;;;6209487;23;20327;-83
2023/06/28 02:13:08;;;;;;;3.78;2.65;;;;;;;;;;6209290;23;20091;-82
2023/06/28 02:15:35;;;;;;;2.63;2.20;;;;;;;;;;6208186;23;20106;-83
2023/06/28 02:18:01;;;;;;;5.28;2.35;;;;;;;;;;6208465;23;20012;-83
2023/06/28 02:20:27;;;;;;;5.45;3.00;;;;;;;;;;6208455;23;20023;-82
2023/06/28 02:22:53;;;;;;;6.63;2.97;;;;;;;;;;6206412;23;20430;-83
2023/06/28 02:25:19;;;;;;;6.00;2.78;;;;;;;;;;6208822;23;20435;-83
2023/06/28 02:27:45;;;;;;;5.50;2.92;;;;;;;;;;6208721;23;20016;-83
2023/06/28 02:30:12;;;;;;;6.82;2.70;;;;;;;;;;6207943;23;20058;-83
2023/06/28 02:32:38;;;;;;;5.82;2.90;;;;;;;;;;6182645;23;20024;-83
2023/06/28 02:35:04;;;;;;;3.78;2.80;;;;;;;;;;6207084;23;20031;-83
2023/06/28 02:37:30;;;;;;;5.22;2.60;;;;;;;;;;6206131;23;20318;-83
2023/06/28 02:39:56;;;;;;;9.77;3.30;;;;;;;;;;6206407;23;20027;-83
2023/06/28 02:42:22;;;;;;;4.00;2.40;;;;;;;;;;6206512;23;20024;-83
2023/06/28 02:44:48;;;;;;;4.03;2.60;;;;;;;;;;6206649;23;20016;-83
2023/06/28 02:47:14;;;;;;;5.50;3.03;;;;;;;;;;6208872;23;20035;-83
2023/06/28 02:49:40;;;;;;;4.28;3.03;;;;;;;;;;6182227;23;20048;-83
2023/06/28 02:52:06;;;;;;;4.13;2.88;;;;;;;;;;6206105;23;20319;-83
2023/06/28 02:54:33;;;;;;;5.68;3.50;;;;;;;;;;6209154;23;20039;-82
2023/06/28 02:56:59;;;;;;;5.55;3.42;;;;;;;;;;6205807;23;20569;-83
2023/06/28 02:59:25;;;;;;;7.43;2.80;;;;;;;;;;6205862;23;20338;-83
2023/06/28 03:01:51;;;;;;;4.55;2.97;;;;;;;;;;6206190;23;20063;-82
2023/06/28 03:04:17;;;;;;;5.75;2.83;;;;;;;;;;6206376;23;20116;-82
2023/06/28 03:06:48;;;;;;;7.22;3.30;;;;;;;;;;6208734;23;20020;-83
2023/06/28 03:09:14;;;;;;;5.55;3.15;;;;;;;;;;6208824;23;20136;-82
2023/06/28 03:11:40;;;;;;;6.15;2.95;;;;;;;;;;6205638;23;20378;-83
2023/06/28 03:14:06;;;;;;;4.95;3.03;;;;;;;;;;6206301;23;20450;-83
2023/06/28 03:16:32;;;;;;;4.78;2.80;;;;;;;;;;6206176;23;20426;-82
2023/06/28 03:18:58;;;;;;;4.82;2.80;;;;;;;;;;6206526;23;20020;-83
2023/06/28 03:21:24;;;;;;;4.63;2.45;;;;;;;;;;6206265;23;20070;-83
2023/06/28 03:23:50;;;;;;;4.85;3.28;;;;;;;;;;6208608;23;20070;-83
2023/06/28 03:26:16;;;;;;;7.40;3.45;;;;;;;;;;6208145;23;20055;-83
2023/06/28 03:28:42;;;;;;;5.88;3.33;;;;;;;;;;6206202;23;20027;-83
2023/06/28 03:31:08;;;;;;;5.18;4.18;;;;;;;;;;6208137;23;20044;-83
2023/06/28 03:33:34;;;;;;;4.15;3.03;;;;;;;;;;6180828;23;20031;-82
2023/06/28 03:36:00;;;;;;;4.63;2.95;;;;;;;;;;6206247;23;20370;-82
2023/06/28 03:38:26;;;;;;;6.18;2.97;;;;;;;;;;6206794;23;20096;-83
2023/06/28 03:40:52;;;;;;;5.95;3.25;;;;;;;;;;6208745;23;20387;-83
2023/06/28 03:43:18;;;;;;;5.13;3.00;;;;;;;;;;6205541;23;20377;-83
2023/06/28 03:45:45;;;;;;;5.93;3.20;;;;;;;;;;6206895;23;20020;-83
2023/06/28 03:48:11;;;;;;;5.43;2.80;;;;;;;;;;6206330;23;20066;-83
2023/06/28 03:50:37;;;;;;;6.32;2.75;;;;;;;;;;6207179;23;20020;-82
2023/06/28 03:53:03;;;;;;;5.57;4.22;;;;;;;;;;6207324;23;20074;-83
2023/06/28 03:55:29;;;;;;;5.43;2.97;;;;;;;;;;6205571;23;20465;-83
2023/06/28 03:57:55;;;;;;;4.20;2.80;;;;;;;;;;6205645;23;20020;-83
2023/06/28 04:00:21;;;;;;;4.18;2.72;;;;;;;;;;6206110;23;20074;-83
2023/06/28 04:02:47;;;;;;;4.93;3.33;;;;;;;;;;6207717;23;20066;-82
2023/06/28 04:05:14;;;;;;;5.70;2.90;;;;;;;;;;6208162;23;20083;-83
2023/06/28 04:07:40;;;;;;;4.05;2.88;;;;;;;;;;6205732;23;20074;-82
2023/06/28 04:10:06;;;;;;;5.53;3.10;;;;;;;;;;6206285;23;20040;-82
2023/06/28 04:12:32;;;;;;;6.35;2.75;;;;;;;;;;6207573;23;20027;-82
2023/06/28 04:14:59;;;;;;;3.47;3.03;;;;;;;;;;6207502;23;20078;-82
2023/06/28 04:17:26;;;;;;;5.43;2.92;;;;;;;;;;6206352;23;20021;-83
2023/06/28 04:19:52;;;;;;;9.65;3.15;;;;;;;;;;6208696;23;20009;-86
2023/06/28 04:22:18;;;;;;;6.10;3.22;;;;;;;;;;6207502;23;20311;-82
2023/06/28 04:24:44;;;;;;;6.85;3.30;;;;;;;;;;6208373;23;20017;-83
2023/06/28 04:27:10;;;;;;;4.70;3.00;;;;;;;;;;6205206;23;20012;-83
2023/06/28 04:29:36;;;;;;;3.67;2.78;;;;;;;;;;6208529;23;20024;-83
2023/06/28 04:32:02;;;;;;;5.25;3.08;;;;;;;;;;6206142;23;20165;-83
2023/06/28 04:34:28;;;;;;;4.47;2.83;;;;;;;;;;6206270;23;20319;-83
2023/06/28 04:36:57;;;;;;;4.40;2.95;;;;;;;;;;6205728;23;20342;-83
2023/06/28 04:39:23;;;;;;;4.43;2.80;;;;;;;;;;6205686;23;20860;-83
2023/06/28 04:41:51;;;;;;;5.88;3.30;;;;;;;;;;6205138;23;20009;-84
2023/06/28 04:44:17;;;;;;;4.53;3.10;;;;;;;;;;6205433;23;20016;-84
2023/06/28 04:46:44;;;;;;;6.22;3.28;;;;;;;;;;6207879;23;20083;-84
2023/06/28 04:49:10;;;;;;;6.57;3.35;;;;;;;;;;6208039;23;20031;-84
2023/06/28 04:51:36;;;;;;;6.55;2.92;;;;;;;;;;6205329;23;20012;-85
2023/06/28 04:54:03;;;;;;;5.47;3.10;;;;;;;;;;6208544;23;20044;-85
2023/06/28 04:56:29;;;;;;;3.30;2.58;;;;;;;;;;6205998;23;20016;-86
2023/06/28 04:58:55;;;;;;;4.78;3.25;;;;;;;;;;6205432;23;20019;-85
2023/06/28 05:01:22;;;;;;;4.70;2.67;;;;;;;;;;6207952;23;20012;-85
2023/06/28 05:03:48;;;;;;;4.32;2.78;;;;;;;;;;6205659;23;20492;-85
2023/06/28 05:06:14;;;;;;;3.75;2.42;;;;;;;;;;6205373;23;20017;-86
2023/06/28 05:08:40;;;;;;;6.13;3.38;;;;;;;;;;6203687;23;20012;-85
2023/06/28 05:11:07;;;;;;;5.97;2.33;;;;;;;;;;6205209;23;20024;-85
2023/06/28 05:13:33;;;;;;;2.95;2.08;;;;;;;;;;6205900;23;20021;-84
2023/06/28 05:15:59;;;;;;;3.60;2.40;;;;;;;;;;6205655;23;20020;-85
2023/06/28 05:18:25;;;;;;;3.92;1.98;;;;;;;;;;6205090;23;20013;-84
2023/06/28 05:20:51;;;;;;;5.20;2.53;;;;;;;;;;6204642;23;20020;-86
2023/06/28 05:23:18;;;;;;;2.83;1.80;;;;;;;;;;6204344;23;20020;-85
2023/06/28 05:25:45;;;;;;;3.00;2.58;;;;;;;;;;6205729;23;20036;-85
2023/06/28 05:28:13;;;;;;;3.38;2.63;;;;;;;;;;6205173;23;20023;-85
2023/06/28 05:30:39;;;;;;;3.78;2.83;;;;;;;;;;6205522;23;20019;-86
2023/06/28 05:33:05;;;;;;;2.65;1.90;;;;;;;;;;6204895;23;20087;-87
2023/06/28 05:35:32;;;;;;;2.97;1.90;;;;;;;;;;6180830;23;20078;-88
2023/06/28 05:37:59;;;;;;;3.17;2.75;;;;;;;;;;6207098;23;20021;-86
2023/06/28 05:40:26;;;;;;;2.08;1.80;;;;;;;;;;6204374;23;20051;-87
2023/06/28 05:42:53;;;;;;;3.25;2.10;;;;;;;;;;6207660;23;20297;-85
2023/06/28 05:45:22;;;;;;;3.63;1.90;;;;;;;;;;6178408;23;20024;-86
2023/06/28 05:47:49;;;;;;;4.35;1.90;;;;;;;;;;6179962;23;20091;-86
2023/06/28 05:50:16;;;;;;;3.17;1.90;;;;;;;;;;6205974;23;20023;-87
2023/06/28 05:52:42;;;;;;;4.30;2.45;;;;;;;;;;6206959;23;20333;-86
2023/06/28 05:55:08;;;;;;;4.22;2.67;;;;;;;;;;6206075;23;20128;-87
2023/06/28 05:57:35;;;;;;;3.63;2.55;;;;;;;;;;6206555;23;20017;-86
2023/06/28 06:00:01;;;;;;;3.90;2.40;;;;;;;;;;6205635;23;20079;-87
2023/06/28 06:02:28;;;;;;;4.20;2.10;;;;;;;;;;6206332;23;20017;-87
2023/06/28 06:04:54;;;;;;;3.47;2.00;;;;;;;;;;6206963;23;20055;-86
2023/06/28 06:07:20;;;;;;;4.82;2.72;;;;;;;;;;6206313;23;20442;-89
2023/06/28 06:09:46;;;;;;;3.67;2.08;;;;;;;;;;6208076;23;20012;-87
2023/06/28 06:12:12;;;;;;;5.00;2.38;;;;;;;;;;6206773;23;20091;-86
2023/06/28 06:14:38;;;;;;;4.22;2.50;;;;;;;;;;6206513;23;20024;-86
2023/06/28 06:17:04;;;;;;;3.88;2.40;;;;;;;;;;6205956;23;20017;-87
2023/06/28 06:19:30;;;;;;;3.13;2.22;;;;;;;;;;6207339;23;20020;-87
2023/06/28 06:21:56;;;;;;;3.47;2.10;;;;;;;;;;6204770;23;20071;-88
2023/06/28 06:24:22;;;;;;;4.28;2.47;;;;;;;;;;6206945;23;20092;-87
2023/06/28 06:26:48;;;;;;;5.13;2.33;;;;;;;;;;6206203;23;20404;-87
2023/06/28 06:29:14;;;;;;;6.35;2.47;;;;;;;;;;6206795;23;20012;-87
2023/06/28 06:31:40;;;;;;;4.82;2.17;;;;;;;;;;6206546;23;20020;-89
2023/06/28 06:34:06;;;;;;;8.30;2.97;;;;;;;;;;6206711;23;20017;-86
2023/06/28 06:36:32;;;;;;;8.55;3.40;;;;;;;;;;6206415;23;20027;-87
2023/06/28 06:38:59;;;;;;;6.13;2.55;;;;;;;;;;6208100;23;20020;-85
2023/06/28 06:41:25;;;;;;;4.50;2.33;;;;;;;;;;6207641;23;20013;-83
2023/06/28 06:43:52;;;;;;;6.15;3.10;;;;;;;;;;6206307;23;20381;-85
2023/06/28 06:46:20;;;;;;;5.22;3.35;;;;;;;;;;6205235;23;20020;-84
2023/06/28 06:48:47;;;;;;;6.90;2.75;;;;;;;;;;6205820;23;20026;-82
2023/06/28 06:51:13;;;;;;;4.93;2.58;;;;;;;;;;6206847;23;20067;-88
2023/06/28 06:53:39;;;;;;;8.93;2.92;;;;;;;;;;6206978;23;20055;-88
2023/06/28 06:56:05;;;;;;;4.45;2.50;;;;;;;;;;6206565;23;20017;-84
2023/06/28 06:58:31;;;;;;;7.32;3.42;;;;;;;;;;6206555;23;20016;-87
2023/06/28 07:00:57;;;;;;;5.38;3.00;;;;;;;;;;6208471;23;20020;-87
2023/06/28 07:03:24;;;;;;;5.28;2.63;;;;;;;;;;6205407;23;20492;-89
2023/06/28 07:05:50;;;;;;;5.07;2.63;;;;;;;;;;6207461;23;20012;-88
2023/06/28 07:08:17;;;;;;;6.72;3.20;;;;;;;;;;6205273;23;20016;-86
2023/06/28 07:10:43;;;;;;;5.57;2.78;;;;;;;;;;6206455;23;20295;-85
2023/06/28 07:13:10;;;;;;;4.53;2.72;;;;;;;;;;6209182;23;20013;-87
2023/06/28 07:15:36;;;;;;;4.82;2.80;;;;;;;;;;6208417;23;20013;-87
2023/06/28 07:18:03;;;;;;;4.43;2.70;;;;;;;;;;6206728;23;20036;-88
2023/06/28 07:20:30;;;;;;;4.13;2.40;;;;;;;;;;6204508;23;20020;-87
2023/06/28 07:22:56;;;;;;;4.18;2.95;;;;;;;;;;6206125;23;20044;-88
2023/06/28 07:25:22;;;;;;;4.40;2.55;;;;;;;;;;6205998;23;20016;-91
2023/06/28 07:27:48;;;;;;;6.45;3.22;;;;;;;;;;6181339;23;20021;-91
2023/06/28 07:30:14;;;;;;;4.30;3.15;;;;;;;;;;6207327;23;20474;-88
2023/06/28 07:32:40;;;;;;;3.97;2.40;;;;;;;;;;6206259;23;20027;-87
2023/06/28 07:35:06;;;;;;;5.95;3.17;;;;;;;;;;6203594;23;20088;-87
2023/06/28 07:37:32;;;;;;;4.43;3.28;;;;;;;;;;6207227;23;20020;-90
2023/06/28 07:39:58;;;;;;;5.95;3.72;;;;;;;;;;6207961;23;20019;-87
2023/06/28 07:42:26;;;;;;;5.45;2.88;;;;;;;;;;6208750;23;20019;-91
2023/06/28 07:44:52;;;;;;;5.95;3.05;;;;;;;;;;6181831;23;20013;-91
2023/06/28 07:47:19;;;;;;;7.43;3.95;;;;;;;;;;6205757;23;20024;-89
2023/06/28 07:49:45;;;;;;;6.80;2.92;;;;;;;;;;6205962;23;20019;-88
2023/06/28 07:52:11;;;;;;;6.93;3.72;;;;;;;;;;6182175;23;20021;-89
2023/06/28 07:54:37;;;;;;;5.40;3.28;;;;;;;;;;6209426;23;20017;-90
2023/06/28 07:57:04;;;;;;;6.60;3.80;;;;;;;;;;6205781;23;20019;-90
2023/06/28 07:59:30;;;;;;;3.70;2.78;;;;;;;;;;6182269;23;20047;-92
2023/06/28 08:01:56;;;;;;;7.18;3.15;;;;;;;;;;6206628;23;20463;-91
2023/06/28 08:04:22;;;;;;;7.90;3.10;;;;;;;;;;6206636;23;20012;-90
2023/06/28 08:06:49;;;;;;;5.47;3.15;;;;;;;;;;6181626;23;20305;-90
2023/06/28 08:09:15;;;;;;;5.05;2.90;;;;;;;;;;6206094;23;20008;-90
2023/06/28 08:11:41;;;;;;;4.72;3.17;;;;;;;;;;6206472;23;20338;-91
2023/06/28 08:14:07;;;;;;;3.67;3.30;;;;;;;;;;6182754;23;20016;-91
2023/06/28 08:16:34;;;;;;;6.80;3.63;;;;;;;;;;6208976;23;20329;-92
2023/06/28 08:19:00;;;;;;;7.30;3.03;;;;;;;;;;6207677;23;20342;-91
2023/06/28 08:21:26;;;;;;;5.90;3.38;;;;;;;;;;6180531;23;20432;-90
2023/06/28 08:23:52;;;;;;;5.20;3.90;;;;;;;;;;6207831;23;20326;-90
2023/06/28 08:26:19;;;;;;;5.13;4.00;;;;;;;;;;6207024;23;20066;-91
2023/06/28 08:28:45;;;;;;;4.93;3.45;;;;;;;;;;6206208;23;20012;-91
2023/06/28 08:31:13;;;;;;;4.57;3.17;;;;;;;;;;6207365;23;20016;-91
2023/06/28 08:33:39;;;;;;;6.72;3.92;;;;;;;;;;6181399;23;20059;-91
2023/06/28 08:36:05;;;;;;;5.82;2.90;;;;;;;;;;6206992;23;20012;-91
2023/06/28 08:38:31;;;;;;;8.57;4.03;;;;;;;;;;6206414;23;20619;-91
2023/06/28 08:40:57;;;;;;;8.80;3.70;;;;;;;;;;6208854;23;20023;-91
2023/06/28 08:43:24;;;;;;;5.03;3.50;;;;;;;;;;6181721;23;20013;-91
2023/06/28 08:45:50;;;;;;;5.25;3.35;;;;;;;;;;6207076;23;20013;-90
2023/06/28 08:48:16;;;;;;;8.18;3.72;;;;;;;;;;6205328;23;20016;-89
2023/06/28 08:50:43;;;;;;;6.30;3.58;;;;;;;;;;6180669;23;20017;-89
2023/06/28 08:53:12;;;;;;;8.07;3.67;;;;;;;;;;6205900;23;20013;-90
2023/06/28 08:55:38;;;;;;;4.32;3.20;;;;;;;;;;6207222;23;20012;-91
2023/06/28 08:58:06;;;;;;;7.15;3.75;;;;;;;;;;6208109;23;20019;-91
2023/06/28 09:00:32;;;;;;;5.63;4.32;;;;;;;;;;6205594;23;20016;-90
2023/06/28 09:02:58;;;;;;;7.53;4.03;;;;;;;;;;6204902;23;20062;-91
2023/06/28 09:05:24;;;;;;;7.05;4.57;;;;;;;;;;6207485;23;20311;-91
2023/06/28 09:07:51;;;;;;;7.57;4.57;;;;;;;;;;6206366;23;20389;-91
2023/06/28 09:10:17;;;;;;;7.10;4.03;;;;;;;;;;6205712;23;20020;-92
2023/06/28 09:12:45;;;;;;;7.72;5.13;;;;;;;;;;6207316;23;20334;-91
2023/06/28 09:15:12;;;;;;;5.13;3.60;;;;;;;;;;6182310;23;20048;-92
2023/06/28 09:17:38;;;;;;;6.60;4.43;;;;;;;;;;6208608;23;20494;-91
2023/06/28 09:20:20;;;;;;;5.43;4.05;;;;;;;;;;6208094;23;20449;-91
2023/06/28 09:22:59;;;;;;;7.65;5.20;;;;;;;;;;6182327;23;20008;-91
2023/06/28 09:25:27;;;;;;;8.65;5.00;;;;;;;;;;6207085;23;20027;-92
2023/06/28 09:27:54;;;;;;;7.93;4.72;;;;;;;;;;6208309;23;20023;-93
2023/06/28 09:30:20;;;;;;;10.27;6.35;;;;;;;;;;6208319;23;20075;-88
2023/06/28 09:32:50;;;;;;;10.23;5.70;;;;;;;;;;6210150;23;20021;-93
2023/06/28 09:35:16;;;;;;;8.65;4.93;;;;;;;;;;6185294;23;20027;-93
2023/06/28 09:37:43;;;;;;;10.88;5.72;;;;;;;;;;6211883;23;20047;-93
2023/06/28 09:40:09;;;;;;;8.70;5.55;;;;;;;;;;6192256;23;20008;-93
2023/06/28 09:42:55;;;;;;;7.97;4.68;;;;;;;;;;6190195;23;20012;-93
2023/06/28 09:45:25;;;;;;;11.75;6.22;;;;;;;;;;6210206;23;20038;-94
2023/06/28 09:47:58;;;;;;;7.95;5.88;;;;;;;;;;6212434;23;20013;-94
2023/06/28 09:50:43;;;;;;;9.05;5.55;;;;;;;;;;6184983;23;20346;-94
2023/06/28 09:53:10;;;;;;;11.48;6.22;;;;;;;;;;6210942;23;20024;-92
2023/06/28 09:55:39;;;;;;;10.95;6.47;;;;;;;;;;6209331;23;20028;-93
2023/06/28 09:58:08;;;;;;;11.55;5.55;;;;;;;;;;6182117;23;20342;-94
2023/06/28 10:00:34;;;;;;;10.05;5.80;;;;;;;;;;6182748;23;20012;-92
2023/06/28 10:03:04;;;;;;;11.30;5.40;;;;;;;;;;6208094;23;20020;-91
2023/06/28 10:05:31;;;;;;;7.78;5.53;;;;;;;;;;6206637;23;20009;-92
2023/06/28 10:07:58;;;;;;;10.77;6.35;;;;;;;;;;6183094;23;20062;-92
2023/06/28 10:10:24;;;;;;;12.68;6.43;;;;;;;;;;6208828;23;20051;-91
2023/06/28 10:12:52;;;;;;;11.32;6.25;;;;;;;;;;6209148;23;20020;-92
2023/06/28 10:15:22;;;;;;;10.48;6.13;;;;;;;;;;6208801;23;20375;-91
2023/06/28 10:17:50;;;;;;;9.75;6.03;;;;;;;;;;6208377;23;20016;-90
2023/06/28 10:20:17;;;;;;;10.88;6.63;;;;;;;;;;6182288;23;20023;-90
2023/06/28 10:22:43;;;;;;;7.22;4.97;;;;;;;;;;6182958;23;20387;-91
2023/06/28 10:25:10;;;;;;;7.63;5.38;;;;;;;;;;6185315;23;20013;-86
2023/06/28 10:27:36;;;;;;;9.10;5.63;;;;;;;;;;6206829;23;20346;-89
2023/06/28 10:30:03;;;;;;;10.55;6.60;;;;;;;;;;6204153;23;20039;-90
2023/06/28 10:32:29;;;;;;;9.15;5.63;;;;;;;;;;6206818;23;20020;-90
2023/06/28 10:34:57;;;;;;;9.20;6.18;;;;;;;;;;6208987;23;20013;-91
2023/06/28 10:37:24;;;;;;;12.60;5.95;;;;;;;;;;6207934;23;20052;-90
2023/06/28 10:39:51;;;;;;;9.50;5.32;;;;;;;;;;6210858;23;20012;-91
2023/06/28 10:42:18;;;;;;;9.75;5.88;;;;;;;;;;6207233;23;20020;-86
2023/06/28 10:44:54;;;;;;;11.40;6.75;;;;;;;;;;6205702;23;20374;-84
2023/06/28 10:47:20;;;;;;;9.25;5.38;;;;;;;;;;6208485;23;20082;-84
2023/06/28 10:50:06;;;;;;;9.05;5.68;;;;;;;;;;6207122;23;20096;-84
2023/06/28 10:52:32;;;;;;;8.45;5.45;;;;;;;;;;6207006;23;20016;-83
2023/06/28 10:54:58;;;;;;;7.45;5.88;;;;;;;;;;6207682;23;20070;-84
2023/06/28 10:57:33;;;;;;;8.15;6.05;;;;;;;;;;6206073;23;20044;-83
2023/06/28 10:59:59;;;;;;;9.13;5.45;;;;;;;;;;6206885;23;20020;-83
2023/06/28 11:02:44;;;;;;;7.13;5.03;;;;;;;;;;6206203;23;20028;-85
2023/06/28 11:05:10;;;;;;;7.60;5.47;;;;;;;;;;6207833;23;20070;-84
2023/06/28 11:07:41;;;;;;;9.20;6.38;;;;;;;;;;6206383;23;20567;-84
2023/06/28 11:10:11;;;;;;;10.25;5.65;;;;;;;;;;6206372;23;20043;-82
2023/06/28 11:12:40;;;;;;;9.52;5.95;;;;;;;;;;6206741;23;20025;-84
2023/06/28 11:15:26;;;;;;;8.07;5.20;;;;;;;;;;6208982;23;20024;-83
2023/06/28 11:17:52;;;;;;;9.90;5.82;;;;;;;;;;6208838;23;20013;-83
2023/06/28 11:20:18;;;;;;;7.85;5.43;;;;;;;;;;6207814;23;20017;-84
2023/06/28 11:22:49;;;;;;;8.60;6.20;;;;;;;;;;6181143;23;20052;-84
2023/06/28 11:25:15;;;;;;;8.77;5.32;;;;;;;;;;6206256;23;20347;-80
2023/06/28 11:27:41;;;;;;;8.50;6.13;;;;;;;;;;6204477;23;20020;-81
2023/06/28 11:30:08;;;;;;;9.02;6.03;;;;;;;;;;6206207;23;20024;-81
2023/06/28 11:32:36;;;;;;;7.07;5.65;;;;;;;;;;6204217;23;20075;-84
2023/06/28 11:35:06;;;;;;;8.05;6.32;;;;;;;;;;6205885;23;20342;-84
2023/06/28 11:37:32;;;;;;;7.82;5.47;;;;;;;;;;6207679;23;20321;-84
2023/06/28 11:40:01;;;;;;;9.20;6.18;;;;;;;;;;6208591;23;20348;-84
2023/06/28 11:42:27;;;;;;;7.65;6.00;;;;;;;;;;6206288;23;20046;-83
2023/06/28 11:44:53;;;;;;;9.73;6.03;;;;;;;;;;6206399;23;20083;-84
2023/06/28 11:47:20;;;;;;;8.40;5.70;;;;;;;;;;6205395;23;20111;-83
2023/06/28 11:49:47;;;;;;;6.80;5.85;;;;;;;;;;6205846;23;20056;-83
2023/06/28 11:52:16;;;;;;;7.70;5.97;;;;;;;;;;6179167;23;20020;-83
2023/06/28 11:54:42;;;;;;;7.28;5.13;;;;;;;;;;6205781;23;20320;-84
2023/06/28 11:57:08;;;;;;;6.95;5.80;;;;;;;;;;6207463;23;20340;-84
2023/06/28 11:59:35;;;;;;;8.05;6.20;;;;;;;;;;6206500;23;20142;-83
2023/06/28 12:02:01;;;;;;;8.18;5.78;;;;;;;;;;6205747;23;20012;-83
2023/06/28 12:04:27;;;;;;;9.07;6.40;;;;;;;;;;6205569;23;20015;-83
2023/06/28 12:06:53;;;;;;;9.63;7.05;;;;;;;;;;6207727;23;20032;-82
2023/06/28 12:09:20;;;;;;;9.43;6.50;;;;;;;;;;6207842;23;20102;-83
2023/06/28 12:11:53;;;;;;;9.10;7.55;;;;;;;;;;6207831;23;20019;-82
2023/06/28 12:14:23;;;;;;;10.70;6.82;;;;;;;;;;6207392;23;20008;-83
2023/06/28 12:16:50;;;;;;;9.23;6.82;;;;;;;;;;6207965;23;20016;-83
2023/06/28 12:19:16;;;;;;;8.63;6.85;;;;;;;;;;6205311;23;20246;-83
2023/06/28 12:21:42;;;;;;;10.30;7.57;;;;;;;;;;6207381;23;20015;-83
2023/06/28 12:24:24;;;;;;;9.50;7.10;;;;;;;;;;6207029;23;20092;-83
2023/06/28 12:27:09;;;;;;;8.82;6.72;;;;;;;;;;6206541;23;20023;-82
2023/06/28 12:29:36;;;;;;;9.25;6.78;;;;;;;;;;6206027;23;20016;-82
2023/06/28 12:32:05;;;;;;;9.38;7.03;;;;;;;;;;6207517;23;20019;-83
2023/06/28 12:34:34;;;;;;;9.52;6.85;;;;;;;;;;6204544;23;20013;-80
2023/06/28 12:37:10;;;;;;;10.15;7.60;;;;;;;;;;6206390;23;20027;-85
2023/06/28 12:39:37;;;;;;;10.60;7.45;;;;;;;;;;6205463;23;20044;-84
2023/06/28 12:42:07;;;;;;;12.73;7.90;;;;;;;;;;6205298;23;20108;-84
2023/06/28 12:44:53;;;;;;;11.77;8.82;;;;;;;;;;6207478;23;20315;-85
2023/06/28 12:47:23;;;;;;;9.63;7.43;;;;;;;;;;6189318;23;20043;-84
2023/06/28 12:49:51;;;;;;;11.00;7.45;;;;;;;;;;6206483;23;20387;-84
2023/06/28 12:52:17;;;;;;;13.27;7.22;;;;;;;;;;6207686;23;20016;-84
2023/06/28 12:54:44;;;;;;;12.48;8.32;;;;;;;;;;6203642;23;20461;-84
2023/06/28 12:57:10;;;;;;;14.25;8.45;;;;;;;;;;6203937;23;20020;-84
2023/06/28 12:59:37;;;;;;;11.82;8.38;;;;;;;;;;6206852;23;20013;-85
2023/06/28 13:02:03;;;;;;;14.27;8.15;;;;;;;;;;6204981;23;20454;-84
2023/06/28 13:04:34;;;;;;;13.10;8.82;;;;;;;;;;6205502;23;20120;-84
2023/06/28 13:07:00;;;;;;;13.05;8.15;;;;;;;;;;6207771;23;20062;-84
2023/06/28 13:09:26;;;;;;;14.13;9.77;;;;;;;;;;6182513;23;20016;-84
2023/06/28 13:11:52;;;;;;;13.77;8.75;;;;;;;;;;6209569;23;20105;-84
2023/06/28 13:14:18;;;;;;;13.90;8.93;;;;;;;;;;6208882;23;20016;-84
2023/06/28 13:16:45;;;;;;;13.93;9.13;;;;;;;;;;6206969;23;20568;-83
2023/06/28 13:19:11;;;;;;;15.27;9.57;;;;;;;;;;6205713;23;20017;-83
2023/06/28 13:21:37;;;;;;;14.73;8.98;;;;;;;;;;6206508;23;20346;-83
2023/06/28 13:24:03;;;;;;;13.35;9.77;;;;;;;;;;6207667;23;20080;-83
2023/06/28 13:26:30;;;;;;;15.73;9.60;;;;;;;;;;6208245;23;20319;-84
2023/06/28 13:28:56;;;;;;;14.57;9.07;;;;;;;;;;6209552;23;20017;-84
2023/06/28 13:31:22;;;;;;;14.77;9.18;;;;;;;;;;6209546;23;20021;-83
2023/06/28 13:33:48;;;;;;;15.10;8.98;;;;;;;;;;6209593;23;20043;-84
2023/06/28 13:36:14;;;;;;;13.73;8.98;;;;;;;;;;6209102;23;20021;-83
2023/06/28 13:38:40;;;;;;;16.58;9.43;;;;;;;;;;6208474;23;20417;-83
2023/06/28 13:41:06;;;;;;;15.10;9.60;;;;;;;;;;6208622;23;20514;-83
2023/06/28 13:43:32;;;;;;;12.77;9.15;;;;;;;;;;6207965;23;20418;-83
2023/06/28 13:45:58;;;;;;;16.23;9.00;;;;;;;;;;6209532;23;20016;-83
2023/06/28 13:48:24;;;;;;;17.67;9.65;;;;;;;;;;6208494;23;20386;-83
2023/06/28 13:50:50;;;;;;;14.55;9.50;;;;;;;;;;6178749;23;20023;-83
2023/06/28 13:53:16;;;;;;;13.20;9.07;;;;;;;;;;6206404;23;20024;-83
2023/06/28 13:55:42;;;;;;;15.27;9.32;;;;;;;;;;6206975;23;20351;-83
2023/06/28 13:58:09;;;;;;;16.67;9.93;;;;;;;;;;6207164;23;20016;-83
2023/06/28 14:00:35;;;;;;;14.18;8.82;;;;;;;;;;6206101;23;20238;-84
2023/06/28 14:03:01;;;;;;;15.65;9.52;;;;;;;;;;6207499;23;20342;-83
2023/06/28 14:05:27;;;;;;;15.00;9.73;;;;;;;;;;6208222;23;20021;-83
2023/06/28 14:07:53;;;;;;;15.27;10.10;;;;;;;;;;6206939;23;20019;-83
2023/06/28 14:10:19;;;;;;;16.08;9.45;;;;;;;;;;6206307;23;20020;-84
2023/06/28 14:12:45;;;;;;;13.52;9.13;;;;;;;;;;6182218;23;20020;-81
2023/06/28 14:15:11;;;;;;;14.77;9.25;;;;;;;;;;6207858;23;20020;-81
2023/06/28 14:17:37;;;;;;;14.57;8.80;;;;;;;;;;6206881;23;20334;-80
2023/06/28 14:20:03;;;;;;;18.27;10.23;;;;;;;;;;6206247;23;20063;-81
2023/06/28 14:22:30;;;;;;;11.38;9.13;;;;;;;;;;6206440;23;20023;-79
2023/06/28 14:24:56;;;;;;;17.15;10.05;;;;;;;;;;6208512;23;20341;-79
2023/06/28 14:27:22;;;;;;;14.13;8.95;;;;;;;;;;6205445;23;20027;-80
2023/06/28 14:29:48;;;;;;;19.20;10.32;;;;;;;;;;6208736;23;20021;-79
2023/06/28 14:32:14;;;;;;;13.65;8.32;;;;;;;;;;6205715;23;20406;-80
2023/06/28 14:34:40;;;;;;;13.32;8.50;;;;;;;;;;6206227;23;20016;-84
2023/06/28 14:37:06;;;;;;;19.75;9.50;;;;;;;;;;6181472;23;20075;-84
2023/06/28 14:39:32;;;;;;;13.93;9.45;;;;;;;;;;6207367;23;20070;-84